Bookmark and Share
Track history (hours):
 

Falconia

Last reported at 2014-Apr-17 17:30 UTC. Time now 2014-Apr-19 14:38 UTC.
Position N 36°32' E 014°08'.

Length 88 m; draft 4.2 m.

Type: Cargo ship. MMSI: 353620000.

NotesDate/timePositionNaut miles runAvg speedWind from/ knotsBaromVisibWave heightAir tempDewpointWater temp
2014-Apr-17 17:30N 36°32' E 014°08'1111.8
2014-Apr-17 16:34N 36°41' E 013°59'1211.6
2014-Apr-17 15:29N 36°47' E 013°46'42710.7
2014-Apr-15 23:29N 43°10' E 009°41'1010.4
2014-Apr-15 22:34N 43°19' E 009°43'1010.4
2014-Apr-15 21:34N 43°29' E 009°46'1010.4
2014-Apr-15 20:34N 43°40' E 009°48'1010.4
2014-Apr-15 19:34N 43°50' E 009°50'1110.6
2014-Apr-15 18:34N 44°00' E 009°52'6 6.1
2014-Apr-15 17:31N 44°07' E 009°50'0 0.0
2014-Apr-15 16:31N 44°07' E 009°50'0 0.0
2014-Apr-15 15:31N 44°07' E 009°50'0 0.0
2014-Apr-15 14:31N 44°07' E 009°50'0 0.0
2014-Apr-15 12:32N 44°07' E 009°50'0 0.0
2014-Apr-15 11:32N 44°07' E 009°50'0 0.0
2014-Apr-15 10:32N 44°07' E 009°50'0 0.0
2014-Apr-15 09:32N 44°07' E 009°50'0 0.0
2014-Apr-15 08:32N 44°07' E 009°50'0 0.0
2014-Apr-15 07:32N 44°07' E 009°50'0 0.0
2014-Apr-15 06:32N 44°07' E 009°50'0 0.0
2014-Apr-15 05:32N 44°07' E 009°50'0 0.0
2014-Apr-15 03:32N 44°07' E 009°50'0 0.0
2014-Apr-15 02:31N 44°07' E 009°50'0 0.0
2014-Apr-15 01:31N 44°07' E 009°50'0 0.0
2014-Apr-15 00:31N 44°07' E 009°50'0 0.0
2014-Apr-14 23:31N 44°07' E 009°50'0 0.0
2014-Apr-14 22:31N 44°07' E 009°50'0 0.0
2014-Apr-14 21:31N 44°07' E 009°50'0 0.0
2014-Apr-14 20:31N 44°07' E 009°50'0 0.0
2014-Apr-14 19:31N 44°07' E 009°50'0 0.0
2014-Apr-14 17:31N 44°07' E 009°50'0 0.0
2014-Apr-14 16:31N 44°07' E 009°50'0 0.0
2014-Apr-14 15:31N 44°07' E 009°50'0 0.0
2014-Apr-14 14:31N 44°07' E 009°50'0 0.0
2014-Apr-14 13:31N 44°07' E 009°50'0 0.0
2014-Apr-14 11:31N 44°07' E 009°50'0 0.0
2014-Apr-14 10:31N 44°07' E 009°50'0 0.0
2014-Apr-14 09:31N 44°07' E 009°50'0 0.0
2014-Apr-14 08:31N 44°07' E 009°50'0 0.0
2014-Apr-14 07:31N 44°07' E 009°50'0 0.0
2014-Apr-14 06:31N 44°07' E 009°50'0 0.0
2014-Apr-14 05:31N 44°07' E 009°50'45 6.5
2014-Apr-13 22:33N 43°22' E 009°43'17 8.1
2014-Apr-13 20:30N 43°06' E 009°39'8 8.3
2014-Apr-13 19:31N 42°57' E 009°40'41810.4
2014-Apr-12 03:26N 36°45' E 013°49'1112.2
2014-Apr-12 02:33N 36°40' E 014°01'46610.5
2014-Apr-10 06:15N 36°26' E 023°40'911.4
2014-Apr-10 05:26N 36°33' E 023°48'1111.4
2014-Apr-10 04:30N 36°41' E 023°58'1111.5
2014-Apr-10 03:33N 36°48' E 024°07'4511.4
2014-Apr-09 23:33N 37°14' E 024°54'1211.5
2014-Apr-09 22:33N 37°17' E 025°08'1211.6
2014-Apr-09 21:33N 37°19' E 025°23'1211.7
2014-Apr-09 20:32N 37°22' E 025°37'9 8.9
2014-Apr-09 19:32N 37°28' E 025°46'1511.7
2014-Apr-09 18:15N 37°42' E 025°40'811.7
2014-Apr-09 17:32N 37°50' E 025°37'1211.7
2014-Apr-09 16:30N 38°02' E 025°33'1111.6
2014-Apr-09 15:31N 38°12' E 025°28'9111.1
2014-Apr-09 07:20N 39°43' E 025°41'1011.9
2014-Apr-09 06:30N 39°52' E 025°46'4711.6
2014-Apr-09 02:28N 40°19' E 026°36'  

Dump ship's entire track history

sailing weather and tide predictions

Falconia — H3QI — position and weather